sensor_id;sensor_type;location;lat;lon;timestamp;pressure;altitude;pressure_sealevel;temperature;humidity
74544;BME280;63016;55.030;38.710;2024-03-02T00:00:15;101316.81;;;-2.09;53.21
74544;BME280;63016;55.030;38.710;2024-03-02T00:02:46;101316.88;;;-2.11;53.26
74544;BME280;63016;55.030;38.710;2024-03-02T00:05:13;101324.59;;;-2.12;53.31
74544;BME280;63016;55.030;38.710;2024-03-02T00:08:05;101331.47;;;-2.14;53.38
74544;BME280;63016;55.030;38.710;2024-03-02T00:10:37;101320.47;;;-2.16;53.29
74544;BME280;63016;55.030;38.710;2024-03-02T00:13:05;101330.00;;;-2.21;53.08
74544;BME280;63016;55.030;38.710;2024-03-02T00:15:42;101322.47;;;-2.26;53.04
74544;BME280;63016;55.030;38.710;2024-03-02T00:18:11;101319.25;;;-2.31;53.01
74544;BME280;63016;55.030;38.710;2024-03-02T00:20:38;101326.06;;;-2.31;52.90
74544;BME280;63016;55.030;38.710;2024-03-02T00:23:05;101320.28;;;-2.37;53.38
74544;BME280;63016;55.030;38.710;2024-03-02T00:28:29;101327.06;;;-2.37;53.39
74544;BME280;63016;55.030;38.710;2024-03-02T00:33:37;101322.22;;;-2.45;52.97
74544;BME280;63016;55.030;38.710;2024-03-02T00:36:06;101324.09;;;-2.50;52.97
74544;BME280;63016;55.030;38.710;2024-03-02T00:38:33;101330.94;;;-2.52;53.12
74544;BME280;63016;55.030;38.710;2024-03-02T00:41:01;101331.09;;;-2.56;53.16
74544;BME280;63016;55.030;38.710;2024-03-02T00:43:48;101331.88;;;-2.54;52.90
74544;BME280;63016;55.030;38.710;2024-03-02T00:46:18;101325.19;;;-2.59;53.31
74544;BME280;63016;55.030;38.710;2024-03-02T00:49:03;101334.63;;;-2.61;53.10
74544;BME280;63016;55.030;38.710;2024-03-02T00:51:31;101332.22;;;-2.65;53.06
74544;BME280;63016;55.030;38.710;2024-03-02T00:54:03;101310.41;;;-2.77;52.77
74544;BME280;63016;55.030;38.710;2024-03-02T00:56:30;101322.97;;;-2.69;52.94
74544;BME280;63016;55.030;38.710;2024-03-02T00:58:55;101323.06;;;-2.72;52.93
74544;BME280;63016;55.030;38.710;2024-03-02T01:01:22;101321.44;;;-2.75;53.05
74544;BME280;63016;55.030;38.710;2024-03-02T01:03:48;101324.06;;;-2.78;52.64
74544;BME280;63016;55.030;38.710;2024-03-02T01:06:17;101325.88;;;-2.81;52.76
74544;BME280;63016;55.030;38.710;2024-03-02T01:08:42;101326.81;;;-2.84;53.24
74544;BME280;63016;55.030;38.710;2024-03-02T01:11:08;101329.50;;;-2.89;52.79
74544;BME280;63016;55.030;38.710;2024-03-02T01:13:34;101331.94;;;-2.86;52.70
74544;BME280;63016;55.030;38.710;2024-03-02T01:16:01;101331.22;;;-2.89;52.72
74544;BME280;63016;55.030;38.710;2024-03-02T01:18:27;101327.84;;;-2.91;53.04
74544;BME280;63016;55.030;38.710;2024-03-02T01:20:52;101333.91;;;-2.94;52.74
74544;BME280;63016;55.030;38.710;2024-03-02T01:23:21;101338.22;;;-2.96;52.72
74544;BME280;63016;55.030;38.710;2024-03-02T01:25:47;101323.91;;;-3.01;52.77
74544;BME280;63016;55.030;38.710;2024-03-02T01:28:13;101329.00;;;-3.01;52.71
74544;BME280;63016;55.030;38.710;2024-03-02T01:30:39;101323.16;;;-3.05;52.93
74544;BME280;63016;55.030;38.710;2024-03-02T01:33:04;101322.44;;;-3.10;52.93
74544;BME280;63016;55.030;38.710;2024-03-02T01:35:31;101338.56;;;-3.08;52.63
74544;BME280;63016;55.030;38.710;2024-03-02T01:37:56;101339.53;;;-3.12;52.48
74544;BME280;63016;55.030;38.710;2024-03-02T01:40:22;101337.03;;;-3.14;52.63
74544;BME280;63016;55.030;38.710;2024-03-02T01:42:52;101338.81;;;-3.17;52.69
74544;BME280;63016;55.030;38.710;2024-03-02T01:45:19;101334.84;;;-3.27;52.91
74544;BME280;63016;55.030;38.710;2024-03-02T01:47:45;101338.13;;;-3.22;52.77
74544;BME280;63016;55.030;38.710;2024-03-02T01:50:11;101331.34;;;-3.23;52.84
74544;BME280;63016;55.030;38.710;2024-03-02T01:52:37;101336.53;;;-3.26;52.62
74544;BME280;63016;55.030;38.710;2024-03-02T01:55:03;101332.44;;;-3.32;52.81
74544;BME280;63016;55.030;38.710;2024-03-02T01:57:33;101334.16;;;-3.32;53.03
74544;BME280;63016;55.030;38.710;2024-03-02T02:00:00;101338.44;;;-3.34;52.85
74544;BME280;63016;55.030;38.710;2024-03-02T02:02:26;101347.81;;;-3.35;53.01
74544;BME280;63016;55.030;38.710;2024-03-02T02:04:51;101341.09;;;-3.38;52.81
74544;BME280;63016;55.030;38.710;2024-03-02T02:07:17;101337.78;;;-3.41;52.86
74544;BME280;63016;55.030;38.710;2024-03-02T02:09:43;101337.81;;;-3.43;52.83
74544;BME280;63016;55.030;38.710;2024-03-02T02:12:12;101342.94;;;-3.44;52.74
74544;BME280;63016;55.030;38.710;2024-03-02T02:14:37;101326.22;;;-3.54;52.75
74544;BME280;63016;55.030;38.710;2024-03-02T02:17:05;101338.81;;;-3.48;52.48
74544;BME280;63016;55.030;38.710;2024-03-02T02:19:30;101344.78;;;-3.49;52.55
74544;BME280;63016;55.030;38.710;2024-03-02T02:21:56;101339.78;;;-3.52;52.69
74544;BME280;63016;55.030;38.710;2024-03-02T02:24:21;101351.72;;;-3.54;52.85
74544;BME280;63016;55.030;38.710;2024-03-02T02:26:47;101351.06;;;-3.61;53.01
74544;BME280;63016;55.030;38.710;2024-03-02T02:29:12;101351.91;;;-3.60;52.67
74544;BME280;63016;55.030;38.710;2024-03-02T02:31:41;101348.50;;;-3.61;52.86
74544;BME280;63016;55.030;38.710;2024-03-02T02:34:07;101349.41;;;-3.62;52.73
74544;BME280;63016;55.030;38.710;2024-03-02T02:36:37;101358.72;;;-3.61;52.88
74544;BME280;63016;55.030;38.710;2024-03-02T02:39:05;101348.63;;;-3.66;52.84
74544;BME280;63016;55.030;38.710;2024-03-02T02:41:32;101348.69;;;-3.67;53.11
74544;BME280;63016;55.030;38.710;2024-03-02T02:43:57;101348.69;;;-3.67;52.88
74544;BME280;63016;55.030;38.710;2024-03-02T02:46:23;101350.41;;;-3.69;52.88
74544;BME280;63016;55.030;38.710;2024-03-02T02:48:49;101353.84;;;-3.70;52.77
74544;BME280;63016;55.030;38.710;2024-03-02T02:51:16;101345.34;;;-3.71;52.92
74544;BME280;63016;55.030;38.710;2024-03-02T02:53:42;101363.16;;;-3.69;53.03
74544;BME280;63016;55.030;38.710;2024-03-02T02:56:07;101356.50;;;-3.75;53.17
74544;BME280;63016;55.030;38.710;2024-03-02T02:58:33;101364.13;;;-3.73;53.11
74544;BME280;63016;55.030;38.710;2024-03-02T03:00:58;101366.66;;;-3.73;53.30
74544;BME280;63016;55.030;38.710;2024-03-02T03:03:24;101363.38;;;-3.78;53.50
74544;BME280;63016;55.030;38.710;2024-03-02T03:05:49;101359.94;;;-3.76;53.25
74544;BME280;63016;55.030;38.710;2024-03-02T03:08:15;101370.16;;;-3.76;53.11
74544;BME280;63016;55.030;38.710;2024-03-02T03:10:43;101362.50;;;-3.76;53.50
74544;BME280;63016;55.030;38.710;2024-03-02T03:13:09;101355.72;;;-3.77;53.33
74544;BME280;63016;55.030;38.710;2024-03-02T03:15:35;101348.09;;;-3.78;53.24
74544;BME280;63016;55.030;38.710;2024-03-02T03:18:04;101359.16;;;-3.79;53.59
74544;BME280;63016;55.030;38.710;2024-03-02T03:20:30;101353.28;;;-3.81;53.59
74544;BME280;63016;55.030;38.710;2024-03-02T03:22:56;101354.13;;;-3.81;53.55
74544;BME280;63016;55.030;38.710;2024-03-02T03:25:22;101357.56;;;-3.82;53.21
74544;BME280;63016;55.030;38.710;2024-03-02T03:27:48;101356.69;;;-3.82;53.39
74544;BME280;63016;55.030;38.710;2024-03-02T03:30:14;101363.50;;;-3.83;53.60
74544;BME280;63016;55.030;38.710;2024-03-02T03:32:40;101352.44;;;-3.82;53.42
74544;BME280;63016;55.030;38.710;2024-03-02T03:35:06;101363.50;;;-3.81;53.50
74544;BME280;63016;55.030;38.710;2024-03-02T03:37:32;101363.56;;;-3.84;53.33
74544;BME280;63016;55.030;38.710;2024-03-02T03:40:04;101367.59;;;-3.77;53.39
74544;BME280;63016;55.030;38.710;2024-03-02T03:42:37;101362.59;;;-3.80;53.64
74544;BME280;63016;55.030;38.710;2024-03-02T03:45:03;101364.34;;;-3.82;53.44
74544;BME280;63016;55.030;38.710;2024-03-02T03:47:29;101359.25;;;-3.82;53.28
74544;BME280;63016;55.030;38.710;2024-03-02T03:49:54;101362.66;;;-3.83;53.20
74544;BME280;63016;55.030;38.710;2024-03-02T03:52:20;101360.94;;;-3.81;53.44
74544;BME280;63016;55.030;38.710;2024-03-02T03:54:46;101354.22;;;-3.85;53.68
74544;BME280;63016;55.030;38.710;2024-03-02T03:57:12;101360.13;;;-3.83;53.46
74544;BME280;63016;55.030;38.710;2024-03-02T03:59:37;101356.84;;;-3.89;53.52
74544;BME280;63016;55.030;38.710;2024-03-02T04:02:03;101361.84;;;-3.84;53.28
74544;BME280;63016;55.030;38.710;2024-03-02T04:04:29;101366.88;;;-3.82;53.67
74544;BME280;63016;55.030;38.710;2024-03-02T04:06:55;101369.41;;;-3.81;53.92
74544;BME280;63016;55.030;38.710;2024-03-02T04:09:20;101365.22;;;-3.83;53.46
74544;BME280;63016;55.030;38.710;2024-03-02T04:11:46;101376.25;;;-3.81;53.46
74544;BME280;63016;55.030;38.710;2024-03-02T04:14:11;101375.41;;;-3.83;53.68
74544;BME280;63016;55.030;38.710;2024-03-02T04:16:38;101370.41;;;-3.86;53.79
74544;BME280;63016;55.030;38.710;2024-03-02T04:19:04;101368.59;;;-3.83;53.94
74544;BME280;63016;55.030;38.710;2024-03-02T04:21:29;101372.97;;;-3.86;53.75
74544;BME280;63016;55.030;38.710;2024-03-02T04:23:55;101371.16;;;-3.83;53.86
74544;BME280;63016;55.030;38.710;2024-03-02T04:26:27;101361.78;;;-3.81;53.57
74544;BME280;63016;55.030;38.710;2024-03-02T04:28:53;101364.34;;;-3.82;53.72
74544;BME280;63016;55.030;38.710;2024-03-02T04:31:19;101370.22;;;-3.79;53.68
74544;BME280;63016;55.030;38.710;2024-03-02T04:33:45;101367.66;;;-3.79;53.67
74544;BME280;63016;55.030;38.710;2024-03-02T04:36:11;101365.09;;;-3.79;53.82
74544;BME280;63016;55.030;38.710;2024-03-02T04:38:37;101369.31;;;-3.78;53.83
74544;BME280;63016;55.030;38.710;2024-03-02T04:41:04;101369.31;;;-3.78;54.07
74544;BME280;63016;55.030;38.710;2024-03-02T04:43:34;101363.38;;;-3.78;54.01
74544;BME280;63016;55.030;38.710;2024-03-02T04:46:00;101366.00;;;-3.80;53.88
74544;BME280;63016;55.030;38.710;2024-03-02T04:48:26;101366.75;;;-3.76;53.81
74544;BME280;63016;55.030;38.710;2024-03-02T04:50:52;101376.03;;;-3.74;54.27
74544;BME280;63016;55.030;38.710;2024-03-02T04:53:17;101377.69;;;-3.71;53.82
74544;BME280;63016;55.030;38.710;2024-03-02T04:55:43;101371.66;;;-3.69;54.37
74544;BME280;63016;55.030;38.710;2024-03-02T04:58:08;101372.53;;;-3.70;54.16
74544;BME280;63016;55.030;38.710;2024-03-02T05:00:34;101369.09;;;-3.67;54.18
74544;BME280;63016;55.030;38.710;2024-03-02T05:03:00;101380.00;;;-3.62;53.97
74544;BME280;63016;55.030;38.710;2024-03-02T05:05:26;101385.06;;;-3.60;54.17
74544;BME280;63016;55.030;38.710;2024-03-02T05:07:52;101381.56;;;-3.58;53.63
74544;BME280;63016;55.030;38.710;2024-03-02T05:10:17;101378.19;;;-3.58;54.17
74544;BME280;63016;55.030;38.710;2024-03-02T05:12:43;101374.81;;;-3.59;54.21
74544;BME280;63016;55.030;38.710;2024-03-02T05:15:09;101377.25;;;-3.54;54.45
74544;BME280;63016;55.030;38.710;2024-03-02T05:17:36;101384.00;;;-3.52;54.19
74544;BME280;63016;55.030;38.710;2024-03-02T05:20:04;101384.78;;;-3.50;53.96
74544;BME280;63016;55.030;38.710;2024-03-02T05:22:29;101383.03;;;-3.48;54.50
74544;BME280;63016;55.030;38.710;2024-03-02T05:24:55;101381.22;;;-3.44;54.14
74544;BME280;63016;55.030;38.710;2024-03-02T05:27:22;101385.38;;;-3.40;54.30
74544;BME280;63016;55.030;38.710;2024-03-02T05:29:47;101381.91;;;-3.38;54.24
74544;BME280;63016;55.030;38.710;2024-03-02T05:32:13;101376.72;;;-3.34;54.40
74544;BME280;63016;55.030;38.710;2024-03-02T05:34:38;101382.53;;;-3.29;54.91
74544;BME280;63016;55.030;38.710;2024-03-02T05:37:05;101382.41;;;-3.23;54.61
74544;BME280;63016;55.030;38.710;2024-03-02T05:39:30;101381.38;;;-3.18;54.85
74544;BME280;63016;55.030;38.710;2024-03-02T05:41:55;101386.31;;;-3.12;55.03
74544;BME280;63016;55.030;38.710;2024-03-02T05:44:21;101371.06;;;-3.13;54.91
74544;BME280;63016;55.030;38.710;2024-03-02T05:46:47;101380.88;;;-2.99;55.12
74544;BME280;63016;55.030;38.710;2024-03-02T05:49:13;101380.78;;;-2.96;55.09
74544;BME280;63016;55.030;38.710;2024-03-02T05:51:38;101384.03;;;-2.90;54.88
74544;BME280;63016;55.030;38.710;2024-03-02T05:54:04;101370.38;;;-2.90;54.95
74544;BME280;63016;55.030;38.710;2024-03-02T05:56:29;101382.78;;;-2.76;55.03
74544;BME280;63016;55.030;38.710;2024-03-02T05:58:55;101380.13;;;-2.73;54.86
74544;BME280;63016;55.030;38.710;2024-03-02T06:01:39;101386.69;;;-2.65;55.25
74544;BME280;63016;55.030;38.710;2024-03-02T06:04:05;101383.19;;;-2.61;55.59
74544;BME280;63016;55.030;38.710;2024-03-02T06:06:31;101381.22;;;-2.52;55.36
74544;BME280;63016;55.030;38.710;2024-03-02T06:09:02;101385.28;;;-2.45;55.39
74544;BME280;63016;55.030;38.710;2024-03-02T06:11:32;101380.75;;;-2.37;55.41
74544;BME280;63016;55.030;38.710;2024-03-02T06:13:58;101382.34;;;-2.33;55.68
74544;BME280;63016;55.030;38.710;2024-03-02T06:16:23;101369.56;;;-2.33;55.64
74544;BME280;63016;55.030;38.710;2024-03-02T06:18:48;101392.06;;;-2.16;55.93
74544;BME280;63016;55.030;38.710;2024-03-02T06:21:14;101396.09;;;-2.09;55.12
74544;BME280;63016;55.030;38.710;2024-03-02T06:23:40;101395.06;;;-2.03;55.43
74544;BME280;63016;55.030;38.710;2024-03-02T06:26:05;101412.78;;;-1.97;55.74
74544;BME280;63016;55.030;38.710;2024-03-02T06:28:31;101388.88;;;-1.96;55.48
74544;BME280;63016;55.030;38.710;2024-03-02T06:30:56;101398.59;;;-1.81;55.35
74544;BME280;63016;55.030;38.710;2024-03-02T06:33:22;101394.19;;;-1.76;55.33
74544;BME280;63016;55.030;38.710;2024-03-02T06:35:47;101394.03;;;-1.71;55.67
74544;BME280;63016;55.030;38.710;2024-03-02T06:38:14;101385.28;;;-1.64;55.48
74544;BME280;63016;55.030;38.710;2024-03-02T06:40:39;101385.00;;;-1.57;56.18
74544;BME280;63016;55.030;38.710;2024-03-02T06:43:06;101400.78;;;-1.44;55.84
74544;BME280;63016;55.030;38.710;2024-03-02T06:45:31;101379.34;;;-1.41;55.96
74544;BME280;63016;55.030;38.710;2024-03-02T06:47:59;101394.16;;;-1.24;55.85
74544;BME280;63016;55.030;38.710;2024-03-02T06:50:24;101392.16;;;-1.16;56.54
74544;BME280;63016;55.030;38.710;2024-03-02T06:52:50;101397.78;;;-1.07;55.74
74544;BME280;63016;55.030;38.710;2024-03-02T06:55:15;101394.91;;;-0.97;56.19
74544;BME280;63016;55.030;38.710;2024-03-02T06:57:41;101388.59;;;-0.89;56.10
74544;BME280;63016;55.030;38.710;2024-03-02T07:00:07;101388.34;;;-0.81;56.02
74544;BME280;63016;55.030;38.710;2024-03-02T07:02:35;101382.97;;;-0.75;56.30
74544;BME280;63016;55.030;38.710;2024-03-02T07:05:02;101385.94;;;-0.62;56.46
74544;BME280;63016;55.030;38.710;2024-03-02T07:07:27;101383.91;;;-0.54;56.36
74544;BME280;63016;55.030;38.710;2024-03-02T07:09:53;101387.84;;;-0.45;56.07
74544;BME280;63016;55.030;38.710;2024-03-02T07:12:18;101385.84;;;-0.37;56.31
74544;BME280;63016;55.030;38.710;2024-03-02T07:14:44;101375.22;;;-0.28;56.71
74544;BME280;63016;55.030;38.710;2024-03-02T07:17:27;101386.78;;;-0.18;56.35
74544;BME280;63016;55.030;38.710;2024-03-02T07:19:53;101390.59;;;-0.06;56.98
74544;BME280;63016;55.030;38.710;2024-03-02T07:22:19;101389.41;;;0.03;56.13
74544;BME280;63016;55.030;38.710;2024-03-02T07:24:45;101384.16;;;0.06;56.59
74544;BME280;63016;55.030;38.710;2024-03-02T07:27:15;101398.09;;;0.20;56.71
74544;BME280;63016;55.030;38.710;2024-03-02T07:29:41;101391.69;;;0.31;56.63
74544;BME280;63016;55.030;38.710;2024-03-02T07:32:07;101391.25;;;0.41;56.62
74544;BME280;63016;55.030;38.710;2024-03-02T07:34:33;101392.44;;;0.53;56.55
74544;BME280;63016;55.030;38.710;2024-03-02T07:36:58;101392.88;;;0.63;57.08
74544;BME280;63016;55.030;38.710;2024-03-02T07:39:24;101397.53;;;0.75;57.40
74544;BME280;63016;55.030;38.710;2024-03-02T07:41:50;101395.31;;;0.86;57.55
74544;BME280;63016;55.030;38.710;2024-03-02T07:44:16;101389.66;;;0.98;57.22
74544;BME280;63016;55.030;38.710;2024-03-02T07:46:44;101389.09;;;1.11;57.51
74544;BME280;63016;55.030;38.710;2024-03-02T07:49:12;101396.34;;;1.21;56.74
74544;BME280;63016;55.030;38.710;2024-03-02T07:51:39;101396.63;;;1.34;57.19
74544;BME280;63016;55.030;38.710;2024-03-02T07:54:05;101392.72;;;1.44;57.21
74544;BME280;63016;55.030;38.710;2024-03-02T07:56:31;101390.56;;;1.54;57.51
74544;BME280;63016;55.030;38.710;2024-03-02T07:58:56;101391.66;;;1.67;57.88
74544;BME280;63016;55.030;38.710;2024-03-02T08:01:30;101386.78;;;1.80;57.39
74544;BME280;63016;55.030;38.710;2024-03-02T08:04:00;101394.81;;;1.91;57.24
74544;BME280;63016;55.030;38.710;2024-03-02T08:06:27;101393.38;;;2.03;57.35
74544;BME280;63016;55.030;38.710;2024-03-02T08:08:57;101406.50;;;2.16;57.65
74544;BME280;63016;55.030;38.710;2024-03-02T08:11:23;101398.44;;;2.23;57.19
74544;BME280;63016;55.030;38.710;2024-03-02T08:13:49;101401.22;;;2.36;57.42
74544;BME280;63016;55.030;38.710;2024-03-02T08:16:16;101399.63;;;2.51;57.92
74544;BME280;63016;55.030;38.710;2024-03-02T08:18:45;101394.91;;;2.59;57.54
74544;BME280;63016;55.030;38.710;2024-03-02T08:21:12;101395.06;;;2.73;57.19
74544;BME280;63016;55.030;38.710;2024-03-02T08:23:37;101385.19;;;2.81;57.40
74544;BME280;63016;55.030;38.710;2024-03-02T08:26:03;101386.28;;;2.93;57.48
74544;BME280;63016;55.030;38.710;2024-03-02T08:28:29;101384.16;;;3.01;57.41
74544;BME280;63016;55.030;38.710;2024-03-02T08:30:55;101383.81;;;3.07;57.63
74544;BME280;63016;55.030;38.710;2024-03-02T08:33:21;101388.25;;;3.21;57.55
74544;BME280;63016;55.030;38.710;2024-03-02T08:35:46;101386.94;;;3.30;57.69
74544;BME280;63016;55.030;38.710;2024-03-02T08:38:12;101383.78;;;3.41;57.32
74544;BME280;63016;55.030;38.710;2024-03-02T08:40:37;101380.81;;;3.48;57.24
74544;BME280;63016;55.030;38.710;2024-03-02T08:43:03;101376.84;;;3.57;57.36
74544;BME280;63016;55.030;38.710;2024-03-02T08:45:29;101379.84;;;3.65;57.69
74544;BME280;63016;55.030;38.710;2024-03-02T08:47:54;101379.34;;;3.74;57.36
74544;BME280;63016;55.030;38.710;2024-03-02T08:50:20;101388.16;;;3.86;57.46
74544;BME280;63016;55.030;38.710;2024-03-02T08:52:45;101386.81;;;3.95;57.52
74544;BME280;63016;55.030;38.710;2024-03-02T08:55:11;101385.47;;;4.03;57.47
74544;BME280;63016;55.030;38.710;2024-03-02T08:57:37;101388.47;;;4.11;57.53
74544;BME280;63016;55.030;38.710;2024-03-02T09:00:03;101388.00;;;4.19;57.54
74544;BME280;63016;55.030;38.710;2024-03-02T09:02:30;101377.41;;;4.24;57.33
74544;BME280;63016;55.030;38.710;2024-03-02T09:04:56;101384.53;;;4.34;57.39
74544;BME280;63016;55.030;38.710;2024-03-02T09:07:22;101385.84;;;4.42;57.08
74544;BME280;63016;55.030;38.710;2024-03-02T09:09:47;101386.25;;;4.50;57.14
74544;BME280;63016;55.030;38.710;2024-03-02T09:12:13;101385.94;;;4.54;57.56
74544;BME280;63016;55.030;38.710;2024-03-02T09:14:38;101386.25;;;4.64;57.45
74544;BME280;63016;55.030;38.710;2024-03-02T09:17:04;101377.50;;;4.67;57.63
74544;BME280;63016;55.030;38.710;2024-03-02T09:19:30;101385.69;;;4.73;56.99
74544;BME280;63016;55.030;38.710;2024-03-02T09:21:55;101381.84;;;4.80;57.04
74544;BME280;63016;55.030;38.710;2024-03-02T09:24:21;101378.78;;;4.88;57.51
74544;BME280;63016;55.030;38.710;2024-03-02T09:26:47;101379.34;;;4.93;57.22
74544;BME280;63016;55.030;38.710;2024-03-02T09:29:12;101380.09;;;4.95;56.89
74544;BME280;63016;55.030;38.710;2024-03-02T09:31:41;101394.56;;;4.98;56.91
74544;BME280;63016;55.030;38.710;2024-03-02T09:34:07;101396.06;;;5.02;57.23
74544;BME280;63016;55.030;38.710;2024-03-02T09:36:51;101390.59;;;5.06;56.91
74544;BME280;63016;55.030;38.710;2024-03-02T09:39:17;101379.53;;;5.04;57.13
74544;BME280;63016;55.030;38.710;2024-03-02T09:41:43;101371.66;;;5.06;57.44
74544;BME280;63016;55.030;38.710;2024-03-02T09:44:09;101389.22;;;5.15;56.96
74544;BME280;63016;55.030;38.710;2024-03-02T09:46:35;101381.19;;;5.20;57.33
74544;BME280;63016;55.030;38.710;2024-03-02T09:49:02;101378.41;;;5.23;57.16
74544;BME280;63016;55.030;38.710;2024-03-02T09:51:28;101378.97;;;5.28;57.72
74544;BME280;63016;55.030;38.710;2024-03-02T09:53:55;101378.69;;;5.32;56.68
74544;BME280;63016;55.030;38.710;2024-03-02T09:56:23;101379.56;;;5.31;56.78
74544;BME280;63016;55.030;38.710;2024-03-02T09:58:49;101372.28;;;5.38;56.84
74544;BME280;63016;55.030;38.710;2024-03-02T10:01:14;101362.75;;;5.38;56.98
74544;BME280;63016;55.030;38.710;2024-03-02T10:03:40;101368.00;;;5.51;57.34
74544;BME280;63016;55.030;38.710;2024-03-02T10:06:22;101365.66;;;5.61;57.29
74544;BME280;63016;55.030;38.710;2024-03-02T10:08:49;101368.56;;;5.69;57.89
74544;BME280;63016;55.030;38.710;2024-03-02T10:11:28;101371.34;;;5.80;57.19
74544;BME280;63016;55.030;38.710;2024-03-02T10:16:30;101364.25;;;5.97;57.35
74544;BME280;63016;55.030;38.710;2024-03-02T10:18:56;101354.00;;;6.08;58.00
74544;BME280;63016;55.030;38.710;2024-03-02T10:21:21;101358.69;;;6.15;57.40
74544;BME280;63016;55.030;38.710;2024-03-02T10:23:49;101358.19;;;6.23;57.42
74544;BME280;63016;55.030;38.710;2024-03-02T10:26:18;101361.22;;;6.30;57.80
74544;BME280;63016;55.030;38.710;2024-03-02T10:28:47;101358.19;;;6.36;57.63
74544;BME280;63016;55.030;38.710;2024-03-02T10:31:13;101356.03;;;6.42;57.14
74544;BME280;63016;55.030;38.710;2024-03-02T10:33:39;101361.84;;;6.46;57.50
74544;BME280;63016;55.030;38.710;2024-03-02T10:36:05;101362.34;;;6.51;57.24
74544;BME280;63016;55.030;38.710;2024-03-02T10:38:31;101363.09;;;6.53;56.67
74544;BME280;63016;55.030;38.710;2024-03-02T10:40:57;101371.59;;;6.55;57.07
74544;BME280;63016;55.030;38.710;2024-03-02T10:43:25;101366.41;;;6.55;56.46
74544;BME280;63016;55.030;38.710;2024-03-02T10:45:52;101357.47;;;6.47;56.53
74544;BME280;63016;55.030;38.710;2024-03-02T10:48:19;101365.47;;;6.43;56.27
74544;BME280;63016;55.030;38.710;2024-03-02T10:50:46;101365.69;;;6.40;56.61
74544;BME280;63016;55.030;38.710;2024-03-02T10:53:12;101356.63;;;6.33;56.30
74544;BME280;63016;55.030;38.710;2024-03-02T10:55:37;101361.63;;;6.36;56.86
74544;BME280;63016;55.030;38.710;2024-03-02T10:58:04;101362.16;;;6.41;57.06
74544;BME280;63016;55.030;38.710;2024-03-02T11:00:35;101357.47;;;6.47;57.16
74544;BME280;63016;55.030;38.710;2024-03-02T11:03:07;101356.97;;;6.54;57.06
74544;BME280;63016;55.030;38.710;2024-03-02T11:05:41;101348.78;;;6.60;57.22
74544;BME280;63016;55.030;38.710;2024-03-02T11:08:12;101350.13;;;6.66;57.01
74544;BME280;63016;55.030;38.710;2024-03-02T11:10:50;101356.56;;;6.73;56.58
74544;BME280;63016;55.030;38.710;2024-03-02T11:13:31;101347.84;;;6.74;56.64
74544;BME280;63016;55.030;38.710;2024-03-02T11:16:03;101351.88;;;6.78;56.80
74544;BME280;63016;55.030;38.710;2024-03-02T11:18:31;101348.97;;;6.83;56.75
74544;BME280;63016;55.030;38.710;2024-03-02T11:20:58;101342.97;;;6.82;56.47
74544;BME280;63016;55.030;38.710;2024-03-02T11:23:34;101339.13;;;6.88;56.40
74544;BME280;63016;55.030;38.710;2024-03-02T11:26:19;101341.28;;;6.94;57.05
74544;BME280;63016;55.030;38.710;2024-03-02T11:28:45;101345.31;;;6.98;56.48
74544;BME280;63016;55.030;38.710;2024-03-02T11:31:11;101340.84;;;7.00;56.68
74544;BME280;63016;55.030;38.710;2024-03-02T11:33:37;101350.31;;;7.01;56.89
74544;BME280;63016;55.030;38.710;2024-03-02T11:36:03;101354.44;;;7.04;56.89
74544;BME280;63016;55.030;38.710;2024-03-02T11:38:33;101358.69;;;7.05;56.31
74544;BME280;63016;55.030;38.710;2024-03-02T11:41:06;101357.97;;;7.03;55.96
74544;BME280;63016;55.030;38.710;2024-03-02T11:43:37;101357.03;;;6.91;55.89
74544;BME280;63016;55.030;38.710;2024-03-02T11:46:05;101358.31;;;6.85;56.00
74544;BME280;63016;55.030;38.710;2024-03-02T11:48:35;101355.41;;;6.77;55.66
74544;BME280;63016;55.030;38.710;2024-03-02T11:51:02;101355.41;;;6.77;56.40
74544;BME280;63016;55.030;38.710;2024-03-02T11:53:28;101356.97;;;6.80;56.75
74544;BME280;63016;55.030;38.710;2024-03-02T11:55:58;101363.72;;;6.82;56.02
74544;BME280;63016;55.030;38.710;2024-03-02T11:58:24;101365.47;;;6.82;55.85
74544;BME280;63016;55.030;38.710;2024-03-02T12:00:54;101366.72;;;6.76;55.60
74544;BME280;63016;55.030;38.710;2024-03-02T12:03:22;101376.47;;;6.73;55.65
74544;BME280;63016;55.030;38.710;2024-03-02T12:05:50;101362.69;;;6.72;56.06
74544;BME280;63016;55.030;38.710;2024-03-02T12:08:16;101368.69;;;6.73;56.51
74544;BME280;63016;55.030;38.710;2024-03-02T12:10:42;101373.97;;;6.71;55.95
74544;BME280;63016;55.030;38.710;2024-03-02T12:13:10;101362.47;;;6.62;56.22
74544;BME280;63016;55.030;38.710;2024-03-02T12:15:38;101378.34;;;6.70;56.26
74544;BME280;63016;55.030;38.710;2024-03-02T12:18:04;101384.03;;;6.76;56.67
74544;BME280;63016;55.030;38.710;2024-03-02T12:20:31;101380.94;;;6.83;56.88
74544;BME280;63016;55.030;38.710;2024-03-02T12:22:58;101375.31;;;6.89;56.77
74544;BME280;63016;55.030;38.710;2024-03-02T12:25:25;101362.22;;;6.91;56.94
74544;BME280;63016;55.030;38.710;2024-03-02T12:27:53;101373.03;;;6.98;55.96
74544;BME280;63016;55.030;38.710;2024-03-02T12:30:20;101380.59;;;7.01;56.58
74544;BME280;63016;55.030;38.710;2024-03-02T12:32:47;101373.31;;;7.06;56.52
74544;BME280;63016;55.030;38.710;2024-03-02T12:35:13;101378.31;;;7.09;56.46
74544;BME280;63016;55.030;38.710;2024-03-02T12:37:43;101383.59;;;7.07;56.05
74544;BME280;63016;55.030;38.710;2024-03-02T12:40:10;101381.44;;;7.01;56.25
74544;BME280;63016;55.030;38.710;2024-03-02T12:42:37;101394.63;;;6.98;55.64
74544;BME280;63016;55.030;38.710;2024-03-02T12:45:03;101378.44;;;6.94;56.23
74544;BME280;63016;55.030;38.710;2024-03-02T12:47:29;101382.66;;;6.95;56.36
74544;BME280;63016;55.030;38.710;2024-03-02T12:49:55;101380.19;;;6.94;56.44
74544;BME280;63016;55.030;38.710;2024-03-02T12:52:21;101386.94;;;6.97;56.09